sensor_id;sensor_type;location;lat;lon;timestamp;P1;durP1;ratioP1;P2;durP2;ratioP2
22881;SDS011;11608;50.894;5.296;2023-05-17T00:01:22;28.98;;;26.35;;
22881;SDS011;11608;50.894;5.296;2023-05-17T00:03:48;29.08;;;26.50;;
22881;SDS011;11608;50.894;5.296;2023-05-17T00:06:14;29.70;;;27.30;;
22881;SDS011;11608;50.894;5.296;2023-05-17T00:08:40;29.60;;;27.05;;
22881;SDS011;11608;50.894;5.296;2023-05-17T00:11:06;30.58;;;27.63;;
22881;SDS011;11608;50.894;5.296;2023-05-17T00:13:32;29.13;;;26.58;;
22881;SDS011;11608;50.894;5.296;2023-05-17T00:15:58;29.00;;;26.45;;
22881;SDS011;11608;50.894;5.296;2023-05-17T00:18:24;29.67;;;27.02;;
22881;SDS011;11608;50.894;5.296;2023-05-17T00:20:50;29.40;;;26.92;;
22881;SDS011;11608;50.894;5.296;2023-05-17T00:23:17;29.77;;;26.92;;
22881;SDS011;11608;50.894;5.296;2023-05-17T00:25:43;29.20;;;26.70;;
22881;SDS011;11608;50.894;5.296;2023-05-17T00:28:09;30.15;;;27.45;;
22881;SDS011;11608;50.894;5.296;2023-05-17T00:30:35;28.63;;;26.40;;
22881;SDS011;11608;50.894;5.296;2023-05-17T00:33:01;29.15;;;26.40;;
22881;SDS011;11608;50.894;5.296;2023-05-17T00:35:28;29.73;;;27.30;;
22881;SDS011;11608;50.894;5.296;2023-05-17T00:37:54;29.50;;;26.67;;
22881;SDS011;11608;50.894;5.296;2023-05-17T00:40:20;29.30;;;26.80;;
22881;SDS011;11608;50.894;5.296;2023-05-17T00:42:46;29.90;;;27.52;;
22881;SDS011;11608;50.894;5.296;2023-05-17T00:45:12;29.98;;;27.23;;
22881;SDS011;11608;50.894;5.296;2023-05-17T00:47:38;29.50;;;27.10;;
22881;SDS011;11608;50.894;5.296;2023-05-17T00:50:04;29.63;;;27.08;;
22881;SDS011;11608;50.894;5.296;2023-05-17T00:52:31;31.05;;;28.30;;
22881;SDS011;11608;50.894;5.296;2023-05-17T00:54:57;31.52;;;28.63;;
22881;SDS011;11608;50.894;5.296;2023-05-17T00:57:23;31.10;;;28.08;;
22881;SDS011;11608;50.894;5.296;2023-05-17T00:59:49;30.70;;;28.13;;
22881;SDS011;11608;50.894;5.296;2023-05-17T01:02:17;29.70;;;27.42;;
22881;SDS011;11608;50.894;5.296;2023-05-17T01:04:43;28.73;;;26.40;;
22881;SDS011;11608;50.894;5.296;2023-05-17T01:07:09;29.80;;;27.05;;
22881;SDS011;11608;50.894;5.296;2023-05-17T01:09:35;30.45;;;28.25;;
22881;SDS011;11608;50.894;5.296;2023-05-17T01:14:40;28.83;;;26.63;;
22881;SDS011;11608;50.894;5.296;2023-05-17T01:17:15;29.92;;;27.38;;
22881;SDS011;11608;50.894;5.296;2023-05-17T01:19:51;30.60;;;28.15;;
22881;SDS011;11608;50.894;5.296;2023-05-17T01:25:10;28.92;;;26.52;;
22881;SDS011;11608;50.894;5.296;2023-05-17T01:27:38;31.45;;;28.70;;
22881;SDS011;11608;50.894;5.296;2023-05-17T01:30:05;30.10;;;27.80;;
22881;SDS011;11608;50.894;5.296;2023-05-17T01:32:32;30.08;;;27.98;;
22881;SDS011;11608;50.894;5.296;2023-05-17T01:35:02;28.45;;;26.25;;
22881;SDS011;11608;50.894;5.296;2023-05-17T01:37:29;28.40;;;26.38;;
22881;SDS011;11608;50.894;5.296;2023-05-17T01:39:55;29.13;;;27.08;;
22881;SDS011;11608;50.894;5.296;2023-05-17T01:42:31;28.90;;;26.45;;
22881;SDS011;11608;50.894;5.296;2023-05-17T01:50:16;27.27;;;25.20;;
22881;SDS011;11608;50.894;5.296;2023-05-17T01:52:44;28.33;;;26.13;;
22881;SDS011;11608;50.894;5.296;2023-05-17T01:57:53;30.10;;;27.60;;
22881;SDS011;11608;50.894;5.296;2023-05-17T02:00:20;29.88;;;27.48;;
22881;SDS011;11608;50.894;5.296;2023-05-17T02:02:47;28.70;;;26.33;;
22881;SDS011;11608;50.894;5.296;2023-05-17T02:05:13;30.33;;;27.75;;
22881;SDS011;11608;50.894;5.296;2023-05-17T02:07:39;29.80;;;27.23;;
22881;SDS011;11608;50.894;5.296;2023-05-17T02:10:05;29.85;;;26.98;;
22881;SDS011;11608;50.894;5.296;2023-05-17T02:12:31;29.80;;;27.05;;
22881;SDS011;11608;50.894;5.296;2023-05-17T02:14:57;29.05;;;26.65;;
22881;SDS011;11608;50.894;5.296;2023-05-17T02:17:23;28.35;;;25.95;;
22881;SDS011;11608;50.894;5.296;2023-05-17T02:19:49;30.95;;;28.20;;
22881;SDS011;11608;50.894;5.296;2023-05-17T02:22:15;29.45;;;26.92;;
22881;SDS011;11608;50.894;5.296;2023-05-17T02:24:41;30.30;;;27.50;;
22881;SDS011;11608;50.894;5.296;2023-05-17T02:27:07;30.38;;;27.27;;
22881;SDS011;11608;50.894;5.296;2023-05-17T02:29:34;30.60;;;27.88;;
22881;SDS011;11608;50.894;5.296;2023-05-17T02:32:00;29.38;;;26.88;;
22881;SDS011;11608;50.894;5.296;2023-05-17T02:34:26;28.50;;;26.02;;
22881;SDS011;11608;50.894;5.296;2023-05-17T02:36:52;28.15;;;25.73;;
22881;SDS011;11608;50.894;5.296;2023-05-17T02:39:18;28.42;;;25.90;;
22881;SDS011;11608;50.894;5.296;2023-05-17T02:41:44;27.98;;;25.83;;
22881;SDS011;11608;50.894;5.296;2023-05-17T02:44:10;29.48;;;26.65;;
22881;SDS011;11608;50.894;5.296;2023-05-17T02:46:36;30.00;;;27.40;;
22881;SDS011;11608;50.894;5.296;2023-05-17T02:49:02;29.10;;;26.70;;
22881;SDS011;11608;50.894;5.296;2023-05-17T02:51:41;29.10;;;26.77;;
22881;SDS011;11608;50.894;5.296;2023-05-17T02:54:07;27.98;;;25.70;;
22881;SDS011;11608;50.894;5.296;2023-05-17T02:56:33;29.20;;;26.27;;
22881;SDS011;11608;50.894;5.296;2023-05-17T02:58:59;26.60;;;24.48;;
22881;SDS011;11608;50.894;5.296;2023-05-17T03:01:26;26.17;;;24.25;;
22881;SDS011;11608;50.894;5.296;2023-05-17T03:03:52;28.63;;;26.35;;
22881;SDS011;11608;50.894;5.296;2023-05-17T03:06:18;28.60;;;26.25;;
22881;SDS011;11608;50.894;5.296;2023-05-17T03:08:45;29.25;;;26.85;;
22881;SDS011;11608;50.894;5.296;2023-05-17T03:11:11;28.67;;;26.38;;
22881;SDS011;11608;50.894;5.296;2023-05-17T03:13:37;29.23;;;26.75;;
22881;SDS011;11608;50.894;5.296;2023-05-17T03:16:03;28.73;;;26.23;;
22881;SDS011;11608;50.894;5.296;2023-05-17T03:18:29;29.30;;;26.77;;
22881;SDS011;11608;50.894;5.296;2023-05-17T03:20:55;28.55;;;26.10;;
22881;SDS011;11608;50.894;5.296;2023-05-17T03:23:21;29.50;;;26.92;;
22881;SDS011;11608;50.894;5.296;2023-05-17T03:25:47;29.42;;;27.10;;
22881;SDS011;11608;50.894;5.296;2023-05-17T03:28:13;29.08;;;26.55;;
22881;SDS011;11608;50.894;5.296;2023-05-17T03:30:40;28.80;;;26.38;;
22881;SDS011;11608;50.894;5.296;2023-05-17T03:33:06;28.67;;;26.15;;
22881;SDS011;11608;50.894;5.296;2023-05-17T03:35:32;28.27;;;25.92;;
22881;SDS011;11608;50.894;5.296;2023-05-17T03:37:58;28.15;;;25.85;;
22881;SDS011;11608;50.894;5.296;2023-05-17T03:40:24;30.25;;;27.58;;
22881;SDS011;11608;50.894;5.296;2023-05-17T03:42:50;30.42;;;27.40;;
22881;SDS011;11608;50.894;5.296;2023-05-17T03:45:16;30.63;;;27.83;;
22881;SDS011;11608;50.894;5.296;2023-05-17T03:47:42;30.25;;;27.70;;
22881;SDS011;11608;50.894;5.296;2023-05-17T03:50:08;31.75;;;28.90;;
22881;SDS011;11608;50.894;5.296;2023-05-17T03:52:35;30.42;;;27.92;;
22881;SDS011;11608;50.894;5.296;2023-05-17T03:55:01;30.00;;;27.58;;
22881;SDS011;11608;50.894;5.296;2023-05-17T03:57:27;27.25;;;25.00;;
22881;SDS011;11608;50.894;5.296;2023-05-17T03:59:53;27.45;;;25.00;;
22881;SDS011;11608;50.894;5.296;2023-05-17T04:02:19;27.80;;;25.63;;
22881;SDS011;11608;50.894;5.296;2023-05-17T04:04:48;27.30;;;24.63;;
22881;SDS011;11608;50.894;5.296;2023-05-17T04:07:17;27.40;;;25.05;;
22881;SDS011;11608;50.894;5.296;2023-05-17T04:09:43;28.40;;;25.77;;
22881;SDS011;11608;50.894;5.296;2023-05-17T04:12:09;28.92;;;26.20;;
22881;SDS011;11608;50.894;5.296;2023-05-17T04:14:36;28.25;;;25.70;;
22881;SDS011;11608;50.894;5.296;2023-05-17T04:17:02;28.02;;;25.75;;
22881;SDS011;11608;50.894;5.296;2023-05-17T04:19:29;28.83;;;26.25;;
22881;SDS011;11608;50.894;5.296;2023-05-17T04:21:55;27.00;;;24.80;;
22881;SDS011;11608;50.894;5.296;2023-05-17T04:24:21;27.25;;;25.13;;
22881;SDS011;11608;50.894;5.296;2023-05-17T04:26:47;25.80;;;23.80;;
22881;SDS011;11608;50.894;5.296;2023-05-17T04:29:13;26.60;;;24.42;;
22881;SDS011;11608;50.894;5.296;2023-05-17T04:31:39;26.92;;;24.75;;
22881;SDS011;11608;50.894;5.296;2023-05-17T04:34:05;28.25;;;25.63;;
22881;SDS011;11608;50.894;5.296;2023-05-17T04:36:32;27.80;;;25.40;;
22881;SDS011;11608;50.894;5.296;2023-05-17T04:38:58;30.02;;;27.33;;
22881;SDS011;11608;50.894;5.296;2023-05-17T04:41:24;29.42;;;26.52;;
22881;SDS011;11608;50.894;5.296;2023-05-17T04:43:50;30.98;;;28.00;;
22881;SDS011;11608;50.894;5.296;2023-05-17T04:46:16;30.27;;;27.65;;
22881;SDS011;11608;50.894;5.296;2023-05-17T04:48:42;30.88;;;27.58;;
22881;SDS011;11608;50.894;5.296;2023-05-17T04:51:10;30.95;;;27.73;;
22881;SDS011;11608;50.894;5.296;2023-05-17T04:53:36;31.85;;;27.08;;
22881;SDS011;11608;50.894;5.296;2023-05-17T04:56:02;30.77;;;27.75;;
22881;SDS011;11608;50.894;5.296;2023-05-17T04:58:28;33.92;;;28.60;;
22881;SDS011;11608;50.894;5.296;2023-05-17T05:00:55;30.92;;;28.15;;
22881;SDS011;11608;50.894;5.296;2023-05-17T05:03:21;32.22;;;29.13;;
22881;SDS011;11608;50.894;5.296;2023-05-17T05:05:47;30.45;;;27.73;;
22881;SDS011;11608;50.894;5.296;2023-05-17T05:08:13;30.55;;;27.88;;
22881;SDS011;11608;50.894;5.296;2023-05-17T05:10:40;29.67;;;27.05;;
22881;SDS011;11608;50.894;5.296;2023-05-17T05:13:06;28.80;;;26.48;;
22881;SDS011;11608;50.894;5.296;2023-05-17T05:15:32;29.38;;;26.90;;
22881;SDS011;11608;50.894;5.296;2023-05-17T05:17:58;30.15;;;27.40;;
22881;SDS011;11608;50.894;5.296;2023-05-17T05:20:29;31.35;;;27.85;;
22881;SDS011;11608;50.894;5.296;2023-05-17T05:22:56;31.33;;;28.33;;
22881;SDS011;11608;50.894;5.296;2023-05-17T05:25:22;30.77;;;27.98;;
22881;SDS011;11608;50.894;5.296;2023-05-17T05:27:48;32.90;;;30.00;;
22881;SDS011;11608;50.894;5.296;2023-05-17T05:30:14;33.22;;;30.17;;
22881;SDS011;11608;50.894;5.296;2023-05-17T05:32:47;34.70;;;31.33;;
22881;SDS011;11608;50.894;5.296;2023-05-17T05:35:13;34.33;;;31.13;;
22881;SDS011;11608;50.894;5.296;2023-05-17T05:37:40;33.00;;;30.08;;
22881;SDS011;11608;50.894;5.296;2023-05-17T05:40:06;32.92;;;29.67;;
22881;SDS011;11608;50.894;5.296;2023-05-17T05:42:33;33.78;;;30.45;;
22881;SDS011;11608;50.894;5.296;2023-05-17T05:44:59;34.72;;;30.95;;
22881;SDS011;11608;50.894;5.296;2023-05-17T05:47:25;33.65;;;29.90;;
22881;SDS011;11608;50.894;5.296;2023-05-17T05:49:51;35.25;;;31.50;;
22881;SDS011;11608;50.894;5.296;2023-05-17T05:52:19;35.28;;;31.33;;
22881;SDS011;11608;50.894;5.296;2023-05-17T05:54:46;36.15;;;32.50;;
22881;SDS011;11608;50.894;5.296;2023-05-17T05:57:12;35.85;;;32.35;;
22881;SDS011;11608;50.894;5.296;2023-05-17T05:59:38;36.17;;;32.63;;
22881;SDS011;11608;50.894;5.296;2023-05-17T06:02:05;37.08;;;33.08;;
22881;SDS011;11608;50.894;5.296;2023-05-17T06:04:31;36.22;;;32.38;;
22881;SDS011;11608;50.894;5.296;2023-05-17T06:06:57;37.20;;;33.35;;
22881;SDS011;11608;50.894;5.296;2023-05-17T06:09:23;36.72;;;32.80;;
22881;SDS011;11608;50.894;5.296;2023-05-17T06:11:51;36.08;;;32.28;;
22881;SDS011;11608;50.894;5.296;2023-05-17T06:14:18;37.00;;;33.13;;
22881;SDS011;11608;50.894;5.296;2023-05-17T06:16:44;37.95;;;32.78;;
22881;SDS011;11608;50.894;5.296;2023-05-17T06:19:12;33.58;;;29.77;;
22881;SDS011;11608;50.894;5.296;2023-05-17T06:21:38;34.60;;;30.67;;
22881;SDS011;11608;50.894;5.296;2023-05-17T06:24:04;32.67;;;29.85;;
22881;SDS011;11608;50.894;5.296;2023-05-17T06:26:31;36.90;;;31.98;;
22881;SDS011;11608;50.894;5.296;2023-05-17T06:28:57;35.58;;;31.85;;
22881;SDS011;11608;50.894;5.296;2023-05-17T06:31:23;33.08;;;29.73;;
22881;SDS011;11608;50.894;5.296;2023-05-17T06:33:49;38.58;;;33.42;;
22881;SDS011;11608;50.894;5.296;2023-05-17T06:36:15;35.85;;;32.20;;
22881;SDS011;11608;50.894;5.296;2023-05-17T06:38:42;34.75;;;31.05;;
22881;SDS011;11608;50.894;5.296;2023-05-17T06:41:08;34.78;;;31.23;;
22881;SDS011;11608;50.894;5.296;2023-05-17T06:43:34;31.70;;;28.77;;
22881;SDS011;11608;50.894;5.296;2023-05-17T06:46:00;35.55;;;31.77;;
22881;SDS011;11608;50.894;5.296;2023-05-17T06:48:26;35.05;;;31.55;;
22881;SDS011;11608;50.894;5.296;2023-05-17T06:50:52;34.10;;;30.48;;
22881;SDS011;11608;50.894;5.296;2023-05-17T06:53:19;37.42;;;31.00;;
22881;SDS011;11608;50.894;5.296;2023-05-17T06:55:45;39.95;;;30.25;;
22881;SDS011;11608;50.894;5.296;2023-05-17T06:58:11;30.92;;;28.00;;
22881;SDS011;11608;50.894;5.296;2023-05-17T07:00:37;32.80;;;29.52;;
22881;SDS011;11608;50.894;5.296;2023-05-17T07:03:03;33.55;;;30.15;;
22881;SDS011;11608;50.894;5.296;2023-05-17T07:05:29;31.83;;;28.48;;
22881;SDS011;11608;50.894;5.296;2023-05-17T07:07:57;31.40;;;28.05;;
22881;SDS011;11608;50.894;5.296;2023-05-17T07:10:23;30.30;;;27.40;;
22881;SDS011;11608;50.894;5.296;2023-05-17T07:12:49;29.73;;;26.75;;
22881;SDS011;11608;50.894;5.296;2023-05-17T07:15:15;33.50;;;29.42;;
22881;SDS011;11608;50.894;5.296;2023-05-17T07:17:41;32.30;;;27.77;;
22881;SDS011;11608;50.894;5.296;2023-05-17T07:20:07;31.35;;;28.23;;
22881;SDS011;11608;50.894;5.296;2023-05-17T07:22:35;32.28;;;28.40;;
22881;SDS011;11608;50.894;5.296;2023-05-17T07:25:01;31.35;;;28.30;;
22881;SDS011;11608;50.894;5.296;2023-05-17T07:27:27;31.08;;;27.63;;
22881;SDS011;11608;50.894;5.296;2023-05-17T07:29:53;30.75;;;27.50;;
22881;SDS011;11608;50.894;5.296;2023-05-17T07:32:19;30.25;;;27.23;;
22881;SDS011;11608;50.894;5.296;2023-05-17T07:34:45;30.30;;;26.92;;
22881;SDS011;11608;50.894;5.296;2023-05-17T07:37:11;28.60;;;25.70;;
22881;SDS011;11608;50.894;5.296;2023-05-17T07:39:38;27.73;;;24.92;;
22881;SDS011;11608;50.894;5.296;2023-05-17T07:42:04;29.50;;;25.42;;
22881;SDS011;11608;50.894;5.296;2023-05-17T07:44:30;27.65;;;24.88;;
22881;SDS011;11608;50.894;5.296;2023-05-17T07:46:56;29.75;;;24.10;;
22881;SDS011;11608;50.894;5.296;2023-05-17T07:49:22;26.10;;;23.30;;
22881;SDS011;11608;50.894;5.296;2023-05-17T07:51:48;26.25;;;23.60;;
22881;SDS011;11608;50.894;5.296;2023-05-17T07:54:23;27.15;;;23.15;;
22881;SDS011;11608;50.894;5.296;2023-05-17T07:56:52;25.63;;;23.15;;
22881;SDS011;11608;50.894;5.296;2023-05-17T07:59:22;26.15;;;22.30;;
22881;SDS011;11608;50.894;5.296;2023-05-17T08:01:48;23.88;;;21.35;;
22881;SDS011;11608;50.894;5.296;2023-05-17T08:04:14;24.10;;;21.35;;
22881;SDS011;11608;50.894;5.296;2023-05-17T08:06:40;23.52;;;21.13;;
22881;SDS011;11608;50.894;5.296;2023-05-17T08:09:06;22.23;;;19.83;;
22881;SDS011;11608;50.894;5.296;2023-05-17T08:11:33;23.27;;;21.02;;
22881;SDS011;11608;50.894;5.296;2023-05-17T08:13:59;24.30;;;20.30;;
22881;SDS011;11608;50.894;5.296;2023-05-17T08:16:25;22.77;;;20.58;;
22881;SDS011;11608;50.894;5.296;2023-05-17T08:18:51;23.13;;;20.92;;
22881;SDS011;11608;50.894;5.296;2023-05-17T08:21:17;23.00;;;20.73;;
22881;SDS011;11608;50.894;5.296;2023-05-17T08:23:44;22.50;;;20.20;;
22881;SDS011;11608;50.894;5.296;2023-05-17T08:26:10;23.98;;;20.70;;
22881;SDS011;11608;50.894;5.296;2023-05-17T08:28:37;20.73;;;18.73;;
22881;SDS011;11608;50.894;5.296;2023-05-17T08:31:03;21.05;;;19.00;;
22881;SDS011;11608;50.894;5.296;2023-05-17T08:33:29;22.30;;;20.25;;
22881;SDS011;11608;50.894;5.296;2023-05-17T08:35:55;22.15;;;20.05;;
22881;SDS011;11608;50.894;5.296;2023-05-17T08:38:23;21.98;;;19.95;;
22881;SDS011;11608;50.894;5.296;2023-05-17T08:40:52;21.85;;;19.65;;
22881;SDS011;11608;50.894;5.296;2023-05-17T08:43:19;22.25;;;20.23;;
22881;SDS011;11608;50.894;5.296;2023-05-17T08:45:45;21.98;;;19.83;;
22881;SDS011;11608;50.894;5.296;2023-05-17T08:48:13;22.27;;;19.92;;
22881;SDS011;11608;50.894;5.296;2023-05-17T08:50:41;20.83;;;18.83;;
22881;SDS011;11608;50.894;5.296;2023-05-17T08:53:07;22.05;;;19.70;;
22881;SDS011;11608;50.894;5.296;2023-05-17T08:55:34;22.90;;;20.75;;
22881;SDS011;11608;50.894;5.296;2023-05-17T08:58:01;21.40;;;19.38;;
22881;SDS011;11608;50.894;5.296;2023-05-17T09:00:28;22.35;;;20.25;;
22881;SDS011;11608;50.894;5.296;2023-05-17T09:02:56;20.35;;;18.33;;
22881;SDS011;11608;50.894;5.296;2023-05-17T09:05:22;21.45;;;19.42;;
22881;SDS011;11608;50.894;5.296;2023-05-17T09:07:49;20.17;;;18.35;;
22881;SDS011;11608;50.894;5.296;2023-05-17T09:10:16;21.23;;;19.10;;
22881;SDS011;11608;50.894;5.296;2023-05-17T09:12:42;20.88;;;18.80;;
22881;SDS011;11608;50.894;5.296;2023-05-17T09:15:16;21.42;;;19.17;;
22881;SDS011;11608;50.894;5.296;2023-05-17T09:17:42;22.05;;;19.70;;
22881;SDS011;11608;50.894;5.296;2023-05-17T09:20:09;20.85;;;18.73;;
22881;SDS011;11608;50.894;5.296;2023-05-17T09:22:35;20.05;;;18.02;;
22881;SDS011;11608;50.894;5.296;2023-05-17T09:25:02;20.95;;;19.02;;
22881;SDS011;11608;50.894;5.296;2023-05-17T09:27:29;20.08;;;18.15;;
22881;SDS011;11608;50.894;5.296;2023-05-17T09:29:56;21.35;;;19.35;;
22881;SDS011;11608;50.894;5.296;2023-05-17T09:32:22;22.02;;;19.08;;
22881;SDS011;11608;50.894;5.296;2023-05-17T09:34:52;21.60;;;19.30;;
22881;SDS011;11608;50.894;5.296;2023-05-17T09:37:20;20.90;;;18.85;;
22881;SDS011;11608;50.894;5.296;2023-05-17T09:39:46;21.73;;;19.40;;
22881;SDS011;11608;50.894;5.296;2023-05-17T09:42:13;21.02;;;19.15;;
22881;SDS011;11608;50.894;5.296;2023-05-17T09:44:50;21.20;;;19.10;;
22881;SDS011;11608;50.894;5.296;2023-05-17T09:47:24;21.02;;;18.77;;
22881;SDS011;11608;50.894;5.296;2023-05-17T09:49:50;20.23;;;18.42;;
22881;SDS011;11608;50.894;5.296;2023-05-17T09:52:17;21.83;;;18.40;;
22881;SDS011;11608;50.894;5.296;2023-05-17T09:54:50;20.83;;;18.85;;
22881;SDS011;11608;50.894;5.296;2023-05-17T09:57:17;20.45;;;18.45;;
22881;SDS011;11608;50.894;5.296;2023-05-17T09:59:46;21.05;;;18.85;;
22881;SDS011;11608;50.894;5.296;2023-05-17T10:02:16;21.08;;;18.95;;
22881;SDS011;11608;50.894;5.296;2023-05-17T10:04:44;21.27;;;19.10;;
22881;SDS011;11608;50.894;5.296;2023-05-17T10:07:11;21.65;;;19.70;;
22881;SDS011;11608;50.894;5.296;2023-05-17T10:09:38;21.23;;;19.25;;
22881;SDS011;11608;50.894;5.296;2023-05-17T10:12:05;22.67;;;20.52;;
22881;SDS011;11608;50.894;5.296;2023-05-17T10:14:32;21.48;;;19.17;;
22881;SDS011;11608;50.894;5.296;2023-05-17T10:17:00;22.38;;;19.23;;
22881;SDS011;11608;50.894;5.296;2023-05-17T10:19:27;21.52;;;19.38;;
22881;SDS011;11608;50.894;5.296;2023-05-17T10:21:53;20.23;;;18.23;;
22881;SDS011;11608;50.894;5.296;2023-05-17T10:24:21;21.60;;;18.92;;
22881;SDS011;11608;50.894;5.296;2023-05-17T10:26:51;21.42;;;18.92;;
22881;SDS011;11608;50.894;5.296;2023-05-17T10:29:17;21.30;;;19.05;;
22881;SDS011;11608;50.894;5.296;2023-05-17T10:31:44;20.90;;;18.73;;
22881;SDS011;11608;50.894;5.296;2023-05-17T10:34:11;21.60;;;19.27;;
22881;SDS011;11608;50.894;5.296;2023-05-17T10:36:42;21.50;;;19.20;;
22881;SDS011;11608;50.894;5.296;2023-05-17T10:39:09;20.95;;;18.95;;
22881;SDS011;11608;50.894;5.296;2023-05-17T10:41:36;20.50;;;18.50;;
22881;SDS011;11608;50.894;5.296;2023-05-17T10:44:03;20.90;;;18.90;;
22881;SDS011;11608;50.894;5.296;2023-05-17T10:46:31;20.58;;;18.42;;
22881;SDS011;11608;50.894;5.296;2023-05-17T10:48:58;21.10;;;18.88;;
22881;SDS011;11608;50.894;5.296;2023-05-17T10:51:28;21.90;;;18.80;;
22881;SDS011;11608;50.894;5.296;2023-05-17T10:56:31;21.30;;;19.15;;
22881;SDS011;11608;50.894;5.296;2023-05-17T11:02:05;25.05;;;19.73;;
22881;SDS011;11608;50.894;5.296;2023-05-17T11:12:42;22.05;;;19.42;;
22881;SDS011;11608;50.894;5.296;2023-05-17T11:22:39;22.13;;;19.10;;
22881;SDS011;11608;50.894;5.296;2023-05-17T11:25:07;22.85;;;18.83;;
22881;SDS011;11608;50.894;5.296;2023-05-17T11:27:37;21.05;;;18.88;;
22881;SDS011;11608;50.894;5.296;2023-05-17T11:30:14;21.25;;;19.13;;
22881;SDS011;11608;50.894;5.296;2023-05-17T11:32:45;20.67;;;18.67;;
22881;SDS011;11608;50.894;5.296;2023-05-17T11:35:24;21.35;;;18.48;;
22881;SDS011;11608;50.894;5.296;2023-05-17T11:37:51;20.23;;;18.48;;
22881;SDS011;11608;50.894;5.296;2023-05-17T11:40:24;21.30;;;18.35;;
22881;SDS011;11608;50.894;5.296;2023-05-17T11:43:11;20.88;;;18.98;;
22881;SDS011;11608;50.894;5.296;2023-05-17T11:45:44;21.85;;;19.52;;
22881;SDS011;11608;50.894;5.296;2023-05-17T11:48:11;22.00;;;19.73;;
22881;SDS011;11608;50.894;5.296;2023-05-17T11:50:38;19.90;;;18.00;;
22881;SDS011;11608;50.894;5.296;2023-05-17T11:53:05;20.83;;;18.85;;
22881;SDS011;11608;50.894;5.296;2023-05-17T11:55:41;20.35;;;18.30;;
22881;SDS011;11608;50.894;5.296;2023-05-17T11:58:08;21.55;;;19.35;;
22881;SDS011;11608;50.894;5.296;2023-05-17T12:00:35;21.63;;;19.30;;
22881;SDS011;11608;50.894;5.296;2023-05-17T12:03:22;21.08;;;19.02;;
22881;SDS011;11608;50.894;5.296;2023-05-17T12:05:49;20.92;;;18.70;;
22881;SDS011;11608;50.894;5.296;2023-05-17T12:08:16;22.15;;;19.20;;
22881;SDS011;11608;50.894;5.296;2023-05-17T12:10:46;20.25;;;18.35;;
22881;SDS011;11608;50.894;5.296;2023-05-17T12:13:13;19.70;;;17.90;;
22881;SDS011;11608;50.894;5.296;2023-05-17T12:15:39;20.45;;;18.45;;
22881;SDS011;11608;50.894;5.296;2023-05-17T12:18:06;20.83;;;18.70;;
22881;SDS011;11608;50.894;5.296;2023-05-17T12:20:32;21.55;;;19.17;;
22881;SDS011;11608;50.894;5.296;2023-05-17T12:22:59;20.90;;;18.92;;
22881;SDS011;11608;50.894;5.296;2023-05-17T12:25:25;20.30;;;18.20;;
22881;SDS011;11608;50.894;5.296;2023-05-17T12:27:54;21.17;;;18.92;;
22881;SDS011;11608;50.894;5.296;2023-05-17T12:30:36;20.60;;;18.60;;
22881;SDS011;11608;50.894;5.296;2023-05-17T12:33:03;20.73;;;18.63;;
22881;SDS011;11608;50.894;5.296;2023-05-17T12:35:30;21.05;;;18.88;;
22881;SDS011;11608;50.894;5.296;2023-05-17T12:37:56;20.40;;;18.35;;
22881;SDS011;11608;50.894;5.296;2023-05-17T12:40:22;20.77;;;18.85;;
22881;SDS011;11608;50.894;5.296;2023-05-17T12:42:48;21.13;;;18.65;;
22881;SDS011;11608;50.894;5.296;2023-05-17T12:45:14;19.90;;;18.00;;
22881;SDS011;11608;50.894;5.296;2023-05-17T12:47:41;20.70;;;18.67;;
22881;SDS011;11608;50.894;5.296;2023-05-17T12:50:07;21.10;;;19.08;;
22881;SDS011;11608;50.894;5.296;2023-05-17T12:52:34;20.48;;;18.45;;
22881;SDS011;11608;50.894;5.296;2023-05-17T12:55:03;20.33;;;18.33;;
22881;SDS011;11608;50.894;5.296;2023-05-17T12:57:29;20.13;;;18.23;;
22881;SDS011;11608;50.894;5.296;2023-05-17T12:59:55;20.73;;;18.75;;
22881;SDS011;11608;50.894;5.296;2023-05-17T13:02:21;20.05;;;18.15;;
22881;SDS011;11608;50.894;5.296;2023-05-17T13:04:47;19.35;;;17.55;;
22881;SDS011;11608;50.894;5.296;2023-05-17T13:07:20;20.67;;;18.60;;
22881;SDS011;11608;50.894;5.296;2023-05-17T13:09:47;20.58;;;18.48;;
22881;SDS011;11608;50.894;5.296;2023-05-17T13:12:21;21.05;;;19.08;;
22881;SDS011;11608;50.894;5.296;2023-05-17T13:14:48;21.30;;;19.17;;
22881;SDS011;11608;50.894;5.296;2023-05-17T13:19:41;20.90;;;18.90;;
22881;SDS011;11608;50.894;5.296;2023-05-17T13:22:07;19.38;;;17.63;;
22881;SDS011;11608;50.894;5.296;2023-05-17T13:24:34;22.13;;;18.98;;
22881;SDS011;11608;50.894;5.296;2023-05-17T13:27:01;21.02;;;18.90;;
22881;SDS011;11608;50.894;5.296;2023-05-17T13:29:27;20.80;;;18.75;;
22881;SDS011;11608;50.894;5.296;2023-05-17T13:31:53;20.10;;;18.20;;
22881;SDS011;11608;50.894;5.296;2023-05-17T13:34:19;19.52;;;17.88;;
22881;SDS011;11608;50.894;5.296;2023-05-17T13:36:46;23.77;;;19.45;;
22881;SDS011;11608;50.894;5.296;2023-05-17T13:39:12;20.20;;;18.38;;
22881;SDS011;11608;50.894;5.296;2023-05-17T13:41:39;20.60;;;18.50;;
22881;SDS011;11608;50.894;5.296;2023-05-17T13:44:05;19.58;;;17.77;;
22881;SDS011;11608;50.894;5.296;2023-05-17T13:46:31;19.63;;;17.80;;
22881;SDS011;11608;50.894;5.296;2023-05-17T13:48:57;20.33;;;18.20;;
22881;SDS011;11608;50.894;5.296;2023-05-17T13:51:23;19.50;;;17.55;;
22881;SDS011;11608;50.894;5.296;2023-05-17T13:53:49;19.23;;;17.58;;
22881;SDS011;11608;50.894;5.296;2023-05-17T13:56:17;19.02;;;17.30;;
22881;SDS011;11608;50.894;5.296;2023-05-17T13:58:43;19.00;;;17.10;;
22881;SDS011;11608;50.894;5.296;2023-05-17T14:01:09;20.05;;;18.10;;
22881;SDS011;11608;50.894;5.296;2023-05-17T14:03:35;19.95;;;18.02;;
22881;SDS011;11608;50.894;5.296;2023-05-17T14:06:02;18.80;;;17.27;;
22881;SDS011;11608;50.894;5.296;2023-05-17T14:08:28;20.67;;;18.45;;
22881;SDS011;11608;50.894;5.296;2023-05-17T14:10:54;18.92;;;17.08;;
22881;SDS011;11608;50.894;5.296;2023-05-17T14:13:21;19.98;;;17.98;;
22881;SDS011;11608;50.894;5.296;2023-05-17T14:15:47;19.25;;;17.45;;
22881;SDS011;11608;50.894;5.296;2023-05-17T14:18:13;19.30;;;17.42;;
22881;SDS011;11608;50.894;5.296;2023-05-17T14:20:39;19.98;;;18.08;;
22881;SDS011;11608;50.894;5.296;2023-05-17T14:23:05;19.42;;;17.75;;
22881;SDS011;11608;50.894;5.296;2023-05-17T14:25:31;20.20;;;18.25;;
22881;SDS011;11608;50.894;5.296;2023-05-17T14:27:57;20.13;;;18.52;;
22881;SDS011;11608;50.894;5.296;2023-05-17T14:30:23;20.83;;;18.83;;
22881;SDS011;11608;50.894;5.296;2023-05-17T14:32:49;19.95;;;17.95;;
22881;SDS011;11608;50.894;5.296;2023-05-17T14:35:15;20.00;;;18.35;;
22881;SDS011;11608;50.894;5.296;2023-05-17T14:37:41;20.33;;;18.33;;
22881;SDS011;11608;50.894;5.296;2023-05-17T14:40:08;21.17;;;19.10;;
22881;SDS011;11608;50.894;5.296;2023-05-17T14:42:34;20.25;;;18.35;;
22881;SDS011;11608;50.894;5.296;2023-05-17T14:45:00;20.70;;;18.77;;
22881;SDS011;11608;50.894;5.296;2023-05-17T14:47:29;20.30;;;18.52;;
22881;SDS011;11608;50.894;5.296;2023-05-17T14:49:55;21.05;;;18.90;;
22881;SDS011;11608;50.894;5.296;2023-05-17T14:52:21;20.38;;;18.58;;
22881;SDS011;11608;50.894;5.296;2023-05-17T14:54:47;20.00;;;18.40;;
22881;SDS011;11608;50.894;5.296;2023-05-17T14:57:14;20.67;;;18.92;;